sensor_id;sensor_type;location;lat;lon;timestamp;P1;durP1;ratioP1;P2;durP2;ratioP2
43678;SDS011;29279;50.858;4.392;2022-12-26T00:01:31;6.22;;;4.80;;
43678;SDS011;29279;50.858;4.392;2022-12-26T00:03:58;8.23;;;6.00;;
43678;SDS011;29279;50.858;4.392;2022-12-26T00:06:25;7.78;;;6.10;;
43678;SDS011;29279;50.858;4.392;2022-12-26T00:08:52;9.40;;;6.45;;
43678;SDS011;29279;50.858;4.392;2022-12-26T00:11:19;7.72;;;6.53;;
43678;SDS011;29279;50.858;4.392;2022-12-26T00:13:45;7.95;;;6.50;;
43678;SDS011;29279;50.858;4.392;2022-12-26T00:16:12;10.82;;;7.85;;
43678;SDS011;29279;50.858;4.392;2022-12-26T00:18:40;9.27;;;7.55;;
43678;SDS011;29279;50.858;4.392;2022-12-26T00:21:07;10.10;;;8.23;;
43678;SDS011;29279;50.858;4.392;2022-12-26T00:23:34;9.10;;;7.30;;
43678;SDS011;29279;50.858;4.392;2022-12-26T00:26:02;10.40;;;7.85;;
43678;SDS011;29279;50.858;4.392;2022-12-26T00:28:29;11.73;;;7.82;;
43678;SDS011;29279;50.858;4.392;2022-12-26T00:30:54;11.48;;;8.02;;
43678;SDS011;29279;50.858;4.392;2022-12-26T00:33:20;9.57;;;7.70;;
43678;SDS011;29279;50.858;4.392;2022-12-26T00:35:46;9.18;;;7.57;;
43678;SDS011;29279;50.858;4.392;2022-12-26T00:38:11;9.80;;;7.50;;
43678;SDS011;29279;50.858;4.392;2022-12-26T00:40:37;9.25;;;7.80;;
43678;SDS011;29279;50.858;4.392;2022-12-26T00:43:07;8.50;;;7.30;;
43678;SDS011;29279;50.858;4.392;2022-12-26T00:45:33;11.13;;;7.25;;
43678;SDS011;29279;50.858;4.392;2022-12-26T00:48:00;7.93;;;7.13;;
43678;SDS011;29279;50.858;4.392;2022-12-26T00:50:25;9.35;;;7.35;;
43678;SDS011;29279;50.858;4.392;2022-12-26T00:52:52;7.78;;;6.35;;
43678;SDS011;29279;50.858;4.392;2022-12-26T00:55:19;9.40;;;7.05;;
43678;SDS011;29279;50.858;4.392;2022-12-26T00:57:44;8.00;;;6.45;;
43678;SDS011;29279;50.858;4.392;2022-12-26T01:00:10;10.73;;;6.88;;
43678;SDS011;29279;50.858;4.392;2022-12-26T01:02:36;11.48;;;7.72;;
43678;SDS011;29279;50.858;4.392;2022-12-26T01:05:03;12.05;;;8.13;;
43678;SDS011;29279;50.858;4.392;2022-12-26T01:07:32;12.48;;;8.77;;
43678;SDS011;29279;50.858;4.392;2022-12-26T01:09:59;13.15;;;9.30;;
43678;SDS011;29279;50.858;4.392;2022-12-26T01:12:24;14.05;;;9.60;;
43678;SDS011;29279;50.858;4.392;2022-12-26T01:14:51;17.17;;;11.65;;
43678;SDS011;29279;50.858;4.392;2022-12-26T01:17:19;25.77;;;13.70;;
43678;SDS011;29279;50.858;4.392;2022-12-26T01:19:45;24.52;;;14.77;;
43678;SDS011;29279;50.858;4.392;2022-12-26T01:22:11;25.25;;;14.93;;
43678;SDS011;29279;50.858;4.392;2022-12-26T01:24:36;24.30;;;15.50;;
43678;SDS011;29279;50.858;4.392;2022-12-26T01:27:02;26.77;;;16.65;;
43678;SDS011;29279;50.858;4.392;2022-12-26T01:29:28;26.15;;;16.10;;
43678;SDS011;29279;50.858;4.392;2022-12-26T01:31:53;22.27;;;15.50;;
43678;SDS011;29279;50.858;4.392;2022-12-26T01:34:19;22.30;;;14.02;;
43678;SDS011;29279;50.858;4.392;2022-12-26T01:36:45;18.45;;;12.93;;
43678;SDS011;29279;50.858;4.392;2022-12-26T01:39:11;18.95;;;12.68;;
43678;SDS011;29279;50.858;4.392;2022-12-26T01:41:36;17.60;;;11.38;;
43678;SDS011;29279;50.858;4.392;2022-12-26T01:47:05;16.58;;;10.13;;
43678;SDS011;29279;50.858;4.392;2022-12-26T01:49:33;15.50;;;10.85;;
43678;SDS011;29279;50.858;4.392;2022-12-26T01:52:05;15.75;;;11.38;;
43678;SDS011;29279;50.858;4.392;2022-12-26T01:54:36;13.45;;;9.50;;
43678;SDS011;29279;50.858;4.392;2022-12-26T01:57:05;13.68;;;9.68;;
43678;SDS011;29279;50.858;4.392;2022-12-26T01:59:39;12.23;;;8.65;;
43678;SDS011;29279;50.858;4.392;2022-12-26T02:02:06;14.05;;;8.68;;
43678;SDS011;29279;50.858;4.392;2022-12-26T02:04:33;11.52;;;7.90;;
43678;SDS011;29279;50.858;4.392;2022-12-26T02:07:21;11.20;;;7.78;;
43678;SDS011;29279;50.858;4.392;2022-12-26T02:09:48;9.05;;;6.90;;
43678;SDS011;29279;50.858;4.392;2022-12-26T02:12:24;8.63;;;6.47;;
43678;SDS011;29279;50.858;4.392;2022-12-26T02:14:53;8.80;;;6.28;;
43678;SDS011;29279;50.858;4.392;2022-12-26T02:17:22;9.73;;;7.60;;
43678;SDS011;29279;50.858;4.392;2022-12-26T02:22:46;9.65;;;5.97;;
43678;SDS011;29279;50.858;4.392;2022-12-26T02:25:54;7.85;;;6.28;;
43678;SDS011;29279;50.858;4.392;2022-12-26T02:43:14;5.75;;;4.00;;
43678;SDS011;29279;50.858;4.392;2022-12-26T02:45:49;5.03;;;3.50;;
43678;SDS011;29279;50.858;4.392;2022-12-26T02:54:47;5.88;;;3.40;;
43678;SDS011;29279;50.858;4.392;2022-12-26T02:57:50;6.10;;;3.00;;
43678;SDS011;29279;50.858;4.392;2022-12-26T03:00:42;4.18;;;2.85;;
43678;SDS011;29279;50.858;4.392;2022-12-26T03:03:29;2.70;;;2.22;;
43678;SDS011;29279;50.858;4.392;2022-12-26T03:06:18;4.70;;;2.60;;
43678;SDS011;29279;50.858;4.392;2022-12-26T03:09:07;4.60;;;2.20;;
43678;SDS011;29279;50.858;4.392;2022-12-26T03:11:58;3.53;;;2.50;;
43678;SDS011;29279;50.858;4.392;2022-12-26T03:17:25;3.42;;;2.35;;
43678;SDS011;29279;50.858;4.392;2022-12-26T03:20:11;4.00;;;3.05;;
43678;SDS011;29279;50.858;4.392;2022-12-26T03:22:47;3.78;;;2.85;;
43678;SDS011;29279;50.858;4.392;2022-12-26T03:25:39;6.93;;;3.58;;
43678;SDS011;29279;50.858;4.392;2022-12-26T03:28:30;5.07;;;3.55;;
43678;SDS011;29279;50.858;4.392;2022-12-26T03:30:57;6.03;;;4.20;;
43678;SDS011;29279;50.858;4.392;2022-12-26T03:33:33;5.35;;;4.22;;
43678;SDS011;29279;50.858;4.392;2022-12-26T03:36:40;11.47;;;4.90;;
43678;SDS011;29279;50.858;4.392;2022-12-26T03:42:36;8.65;;;4.05;;
43678;SDS011;29279;50.858;4.392;2022-12-26T03:45:30;4.72;;;3.40;;
43678;SDS011;29279;50.858;4.392;2022-12-26T03:48:40;3.67;;;3.03;;
43678;SDS011;29279;50.858;4.392;2022-12-26T03:51:30;6.90;;;3.45;;
43678;SDS011;29279;50.858;4.392;2022-12-26T03:54:43;5.50;;;3.38;;
43678;SDS011;29279;50.858;4.392;2022-12-26T03:58:23;3.60;;;2.80;;
43678;SDS011;29279;50.858;4.392;2022-12-26T04:00:48;5.55;;;3.03;;
43678;SDS011;29279;50.858;4.392;2022-12-26T04:03:33;7.07;;;3.40;;
43678;SDS011;29279;50.858;4.392;2022-12-26T04:06:23;5.65;;;2.88;;
43678;SDS011;29279;50.858;4.392;2022-12-26T04:09:15;8.13;;;3.25;;
43678;SDS011;29279;50.858;4.392;2022-12-26T04:12:06;4.93;;;3.17;;
43678;SDS011;29279;50.858;4.392;2022-12-26T04:15:02;6.93;;;3.15;;
43678;SDS011;29279;50.858;4.392;2022-12-26T04:18:02;5.35;;;3.53;;
43678;SDS011;29279;50.858;4.392;2022-12-26T04:24:27;5.70;;;3.80;;
43678;SDS011;29279;50.858;4.392;2022-12-26T04:27:17;4.25;;;3.25;;
43678;SDS011;29279;50.858;4.392;2022-12-26T04:30:03;7.05;;;3.70;;
43678;SDS011;29279;50.858;4.392;2022-12-26T04:32:48;4.80;;;3.30;;
43678;SDS011;29279;50.858;4.392;2022-12-26T04:35:43;5.60;;;3.40;;
43678;SDS011;29279;50.858;4.392;2022-12-26T04:38:33;4.47;;;3.10;;
43678;SDS011;29279;50.858;4.392;2022-12-26T04:41:23;5.13;;;2.80;;
43678;SDS011;29279;50.858;4.392;2022-12-26T04:44:10;4.45;;;2.70;;
43678;SDS011;29279;50.858;4.392;2022-12-26T04:46:47;4.93;;;2.80;;
43678;SDS011;29279;50.858;4.392;2022-12-26T04:49:14;3.95;;;2.85;;
43678;SDS011;29279;50.858;4.392;2022-12-26T04:52:00;4.40;;;2.92;;
43678;SDS011;29279;50.858;4.392;2022-12-26T04:54:29;3.30;;;2.22;;
43678;SDS011;29279;50.858;4.392;2022-12-26T04:56:54;7.30;;;2.92;;
43678;SDS011;29279;50.858;4.392;2022-12-26T04:59:20;3.20;;;2.28;;
43678;SDS011;29279;50.858;4.392;2022-12-26T05:01:47;3.47;;;2.20;;
43678;SDS011;29279;50.858;4.392;2022-12-26T05:04:31;6.43;;;1.75;;
43678;SDS011;29279;50.858;4.392;2022-12-26T05:07:17;5.03;;;2.20;;
43678;SDS011;29279;50.858;4.392;2022-12-26T05:10:07;4.30;;;2.25;;
43678;SDS011;29279;50.858;4.392;2022-12-26T05:12:45;4.60;;;1.92;;
43678;SDS011;29279;50.858;4.392;2022-12-26T05:15:12;2.45;;;1.83;;
43678;SDS011;29279;50.858;4.392;2022-12-26T05:17:38;3.22;;;2.03;;
43678;SDS011;29279;50.858;4.392;2022-12-26T05:20:22;3.05;;;2.08;;
43678;SDS011;29279;50.858;4.392;2022-12-26T05:23:11;3.55;;;1.98;;
43678;SDS011;29279;50.858;4.392;2022-12-26T05:26:02;3.58;;;2.00;;
43678;SDS011;29279;50.858;4.392;2022-12-26T05:28:52;5.22;;;2.15;;
43678;SDS011;29279;50.858;4.392;2022-12-26T05:31:24;3.63;;;1.63;;
43678;SDS011;29279;50.858;4.392;2022-12-26T05:33:49;2.75;;;2.13;;
43678;SDS011;29279;50.858;4.392;2022-12-26T05:36:38;2.03;;;1.42;;
43678;SDS011;29279;50.858;4.392;2022-12-26T05:39:12;4.53;;;2.00;;
43678;SDS011;29279;50.858;4.392;2022-12-26T05:41:38;2.58;;;1.65;;
43678;SDS011;29279;50.858;4.392;2022-12-26T05:44:07;3.67;;;2.15;;
43678;SDS011;29279;50.858;4.392;2022-12-26T05:46:34;3.83;;;1.60;;
43678;SDS011;29279;50.858;4.392;2022-12-26T05:49:00;2.90;;;1.60;;
43678;SDS011;29279;50.858;4.392;2022-12-26T05:51:26;2.45;;;1.40;;
43678;SDS011;29279;50.858;4.392;2022-12-26T05:53:52;4.22;;;1.77;;
43678;SDS011;29279;50.858;4.392;2022-12-26T05:56:18;4.63;;;1.73;;
43678;SDS011;29279;50.858;4.392;2022-12-26T05:58:44;4.63;;;1.35;;
43678;SDS011;29279;50.858;4.392;2022-12-26T06:01:15;1.60;;;1.42;;
43678;SDS011;29279;50.858;4.392;2022-12-26T06:03:44;3.35;;;1.58;;
43678;SDS011;29279;50.858;4.392;2022-12-26T06:06:15;6.13;;;1.52;;
43678;SDS011;29279;50.858;4.392;2022-12-26T06:08:41;3.35;;;1.30;;
43678;SDS011;29279;50.858;4.392;2022-12-26T06:11:08;6.50;;;1.80;;
43678;SDS011;29279;50.858;4.392;2022-12-26T06:13:37;2.85;;;1.10;;
43678;SDS011;29279;50.858;4.392;2022-12-26T06:16:04;3.47;;;1.10;;
43678;SDS011;29279;50.858;4.392;2022-12-26T06:18:31;4.70;;;1.65;;
43678;SDS011;29279;50.858;4.392;2022-12-26T06:20:57;1.70;;;1.00;;
43678;SDS011;29279;50.858;4.392;2022-12-26T06:23:22;1.58;;;1.25;;
43678;SDS011;29279;50.858;4.392;2022-12-26T06:25:52;1.67;;;1.25;;
43678;SDS011;29279;50.858;4.392;2022-12-26T06:28:22;2.75;;;1.10;;
43678;SDS011;29279;50.858;4.392;2022-12-26T06:30:49;2.72;;;1.27;;
43678;SDS011;29279;50.858;4.392;2022-12-26T06:33:16;6.40;;;1.48;;
43678;SDS011;29279;50.858;4.392;2022-12-26T06:35:42;4.68;;;1.13;;
43678;SDS011;29279;50.858;4.392;2022-12-26T06:38:08;4.03;;;1.20;;
43678;SDS011;29279;50.858;4.392;2022-12-26T06:40:37;4.53;;;1.77;;
43678;SDS011;29279;50.858;4.392;2022-12-26T06:43:04;4.60;;;1.52;;
43678;SDS011;29279;50.858;4.392;2022-12-26T06:45:31;1.15;;;0.90;;
43678;SDS011;29279;50.858;4.392;2022-12-26T06:47:57;2.47;;;1.23;;
43678;SDS011;29279;50.858;4.392;2022-12-26T06:50:23;3.22;;;1.38;;
43678;SDS011;29279;50.858;4.392;2022-12-26T06:52:53;4.85;;;1.25;;
43678;SDS011;29279;50.858;4.392;2022-12-26T06:55:19;2.08;;;1.08;;
43678;SDS011;29279;50.858;4.392;2022-12-26T06:57:44;1.65;;;1.00;;
43678;SDS011;29279;50.858;4.392;2022-12-26T07:00:10;2.63;;;1.10;;
43678;SDS011;29279;50.858;4.392;2022-12-26T07:02:37;3.83;;;1.08;;
43678;SDS011;29279;50.858;4.392;2022-12-26T07:05:02;2.92;;;1.13;;
43678;SDS011;29279;50.858;4.392;2022-12-26T07:07:28;3.30;;;1.10;;
43678;SDS011;29279;50.858;4.392;2022-12-26T07:09:55;2.65;;;1.23;;
43678;SDS011;29279;50.858;4.392;2022-12-26T07:12:20;3.63;;;0.98;;
43678;SDS011;29279;50.858;4.392;2022-12-26T07:14:46;4.47;;;1.10;;
43678;SDS011;29279;50.858;4.392;2022-12-26T07:17:12;3.72;;;1.20;;
43678;SDS011;29279;50.858;4.392;2022-12-26T07:19:38;5.40;;;1.48;;
43678;SDS011;29279;50.858;4.392;2022-12-26T07:22:04;4.18;;;1.45;;
43678;SDS011;29279;50.858;4.392;2022-12-26T07:24:29;6.15;;;1.17;;
43678;SDS011;29279;50.858;4.392;2022-12-26T07:26:55;3.83;;;1.33;;
43678;SDS011;29279;50.858;4.392;2022-12-26T07:29:21;4.35;;;1.15;;
43678;SDS011;29279;50.858;4.392;2022-12-26T07:31:47;4.40;;;1.20;;
43678;SDS011;29279;50.858;4.392;2022-12-26T07:34:13;4.32;;;1.20;;
43678;SDS011;29279;50.858;4.392;2022-12-26T07:36:39;4.20;;;1.38;;
43678;SDS011;29279;50.858;4.392;2022-12-26T07:39:05;3.67;;;1.10;;
43678;SDS011;29279;50.858;4.392;2022-12-26T07:41:31;6.15;;;1.30;;
43678;SDS011;29279;50.858;4.392;2022-12-26T07:44:15;4.53;;;1.02;;
43678;SDS011;29279;50.858;4.392;2022-12-26T07:46:41;5.10;;;1.30;;
43678;SDS011;29279;50.858;4.392;2022-12-26T07:49:07;5.05;;;1.30;;
43678;SDS011;29279;50.858;4.392;2022-12-26T07:51:35;7.35;;;1.38;;
43678;SDS011;29279;50.858;4.392;2022-12-26T07:54:00;5.35;;;1.70;;
43678;SDS011;29279;50.858;4.392;2022-12-26T07:56:26;4.00;;;1.02;;
43678;SDS011;29279;50.858;4.392;2022-12-26T07:58:52;3.53;;;1.05;;
43678;SDS011;29279;50.858;4.392;2022-12-26T08:01:17;8.10;;;1.15;;
43678;SDS011;29279;50.858;4.392;2022-12-26T08:03:43;6.97;;;1.02;;
43678;SDS011;29279;50.858;4.392;2022-12-26T08:06:11;9.13;;;1.33;;
43678;SDS011;29279;50.858;4.392;2022-12-26T08:08:37;13.63;;;1.48;;
43678;SDS011;29279;50.858;4.392;2022-12-26T08:11:06;7.28;;;1.20;;
43678;SDS011;29279;50.858;4.392;2022-12-26T08:13:40;7.78;;;1.00;;
43678;SDS011;29279;50.858;4.392;2022-12-26T08:16:06;4.10;;;1.15;;
43678;SDS011;29279;50.858;4.392;2022-12-26T08:18:33;4.88;;;1.27;;
43678;SDS011;29279;50.858;4.392;2022-12-26T08:20:59;3.40;;;1.05;;
43678;SDS011;29279;50.858;4.392;2022-12-26T08:23:24;11.02;;;1.27;;
43678;SDS011;29279;50.858;4.392;2022-12-26T08:25:50;3.70;;;1.00;;
43678;SDS011;29279;50.858;4.392;2022-12-26T08:28:16;3.28;;;1.10;;
43678;SDS011;29279;50.858;4.392;2022-12-26T08:30:42;7.30;;;1.25;;
43678;SDS011;29279;50.858;4.392;2022-12-26T08:33:08;6.10;;;1.38;;
43678;SDS011;29279;50.858;4.392;2022-12-26T08:35:35;10.80;;;1.65;;
43678;SDS011;29279;50.858;4.392;2022-12-26T08:38:01;5.20;;;0.98;;
43678;SDS011;29279;50.858;4.392;2022-12-26T08:40:27;15.10;;;1.55;;
43678;SDS011;29279;50.858;4.392;2022-12-26T08:42:54;9.10;;;1.00;;
43678;SDS011;29279;50.858;4.392;2022-12-26T08:45:21;5.13;;;1.30;;
43678;SDS011;29279;50.858;4.392;2022-12-26T08:47:47;6.22;;;1.02;;
43678;SDS011;29279;50.858;4.392;2022-12-26T08:50:13;6.55;;;1.10;;
43678;SDS011;29279;50.858;4.392;2022-12-26T08:52:40;5.22;;;1.38;;
43678;SDS011;29279;50.858;4.392;2022-12-26T08:55:06;7.85;;;1.50;;
43678;SDS011;29279;50.858;4.392;2022-12-26T08:57:32;5.15;;;1.10;;
43678;SDS011;29279;50.858;4.392;2022-12-26T08:59:57;8.35;;;0.90;;
43678;SDS011;29279;50.858;4.392;2022-12-26T09:02:23;7.75;;;1.40;;
43678;SDS011;29279;50.858;4.392;2022-12-26T09:04:49;8.02;;;1.15;;
43678;SDS011;29279;50.858;4.392;2022-12-26T09:07:15;9.68;;;0.98;;
43678;SDS011;29279;50.858;4.392;2022-12-26T09:09:41;8.57;;;1.75;;
43678;SDS011;29279;50.858;4.392;2022-12-26T09:12:08;12.43;;;2.42;;
43678;SDS011;29279;50.858;4.392;2022-12-26T09:14:33;7.70;;;1.33;;
43678;SDS011;29279;50.858;4.392;2022-12-26T09:16:59;13.13;;;1.65;;
43678;SDS011;29279;50.858;4.392;2022-12-26T09:19:25;9.27;;;1.60;;
43678;SDS011;29279;50.858;4.392;2022-12-26T09:21:54;9.38;;;1.60;;
43678;SDS011;29279;50.858;4.392;2022-12-26T09:24:38;13.27;;;1.90;;
43678;SDS011;29279;50.858;4.392;2022-12-26T09:27:04;6.35;;;1.50;;
43678;SDS011;29279;50.858;4.392;2022-12-26T09:29:29;11.77;;;1.60;;
43678;SDS011;29279;50.858;4.392;2022-12-26T09:31:55;5.47;;;1.35;;
43678;SDS011;29279;50.858;4.392;2022-12-26T09:34:22;9.63;;;1.60;;
43678;SDS011;29279;50.858;4.392;2022-12-26T09:36:48;5.93;;;1.42;;
43678;SDS011;29279;50.858;4.392;2022-12-26T09:39:13;9.32;;;1.33;;
43678;SDS011;29279;50.858;4.392;2022-12-26T09:44:19;13.95;;;1.42;;
43678;SDS011;29279;50.858;4.392;2022-12-26T09:47:38;9.10;;;1.52;;
43678;SDS011;29279;50.858;4.392;2022-12-26T09:50:03;12.90;;;1.85;;
43678;SDS011;29279;50.858;4.392;2022-12-26T09:54:58;9.23;;;1.42;;
43678;SDS011;29279;50.858;4.392;2022-12-26T09:57:50;8.52;;;1.40;;
43678;SDS011;29279;50.858;4.392;2022-12-26T10:00:18;5.88;;;1.30;;
43678;SDS011;29279;50.858;4.392;2022-12-26T10:02:51;10.57;;;1.80;;
43678;SDS011;29279;50.858;4.392;2022-12-26T10:05:22;12.13;;;1.48;;
43678;SDS011;29279;50.858;4.392;2022-12-26T10:08:11;7.82;;;1.17;;
43678;SDS011;29279;50.858;4.392;2022-12-26T10:10:57;7.25;;;1.65;;
43678;SDS011;29279;50.858;4.392;2022-12-26T10:13:37;8.90;;;1.27;;
43678;SDS011;29279;50.858;4.392;2022-12-26T10:16:59;7.45;;;1.33;;
43678;SDS011;29279;50.858;4.392;2022-12-26T10:19:05;10.88;;;1.95;;
43678;SDS011;29279;50.858;4.392;2022-12-26T10:24:41;7.25;;;1.67;;
43678;SDS011;29279;50.858;4.392;2022-12-26T10:27:11;13.15;;;1.55;;
43678;SDS011;29279;50.858;4.392;2022-12-26T10:29:59;8.73;;;1.73;;
43678;SDS011;29279;50.858;4.392;2022-12-26T10:32:36;8.10;;;1.80;;
43678;SDS011;29279;50.858;4.392;2022-12-26T10:37:51;9.77;;;1.75;;
43678;SDS011;29279;50.858;4.392;2022-12-26T10:40:38;11.40;;;2.10;;
43678;SDS011;29279;50.858;4.392;2022-12-26T10:48:11;10.25;;;1.98;;
43678;SDS011;29279;50.858;4.392;2022-12-26T10:50:38;10.15;;;2.03;;
43678;SDS011;29279;50.858;4.392;2022-12-26T10:53:09;11.45;;;1.55;;
43678;SDS011;29279;50.858;4.392;2022-12-26T10:55:37;8.57;;;1.80;;
43678;SDS011;29279;50.858;4.392;2022-12-26T11:03:56;9.90;;;1.85;;
43678;SDS011;29279;50.858;4.392;2022-12-26T11:06:30;16.85;;;2.17;;
43678;SDS011;29279;50.858;4.392;2022-12-26T11:09:20;11.90;;;2.67;;
43678;SDS011;29279;50.858;4.392;2022-12-26T11:12:24;4.22;;;1.40;;
43678;SDS011;29279;50.858;4.392;2022-12-26T11:15:03;10.10;;;2.30;;
43678;SDS011;29279;50.858;4.392;2022-12-26T11:17:32;7.53;;;1.77;;
43678;SDS011;29279;50.858;4.392;2022-12-26T11:22:39;9.30;;;1.58;;
43678;SDS011;29279;50.858;4.392;2022-12-26T11:27:37;6.63;;;1.30;;
43678;SDS011;29279;50.858;4.392;2022-12-26T11:33:11;11.48;;;1.70;;
43678;SDS011;29279;50.858;4.392;2022-12-26T11:35:54;7.32;;;1.40;;
43678;SDS011;29279;50.858;4.392;2022-12-26T11:38:28;7.95;;;1.38;;
43678;SDS011;29279;50.858;4.392;2022-12-26T11:41:00;10.50;;;1.30;;
43678;SDS011;29279;50.858;4.392;2022-12-26T11:43:48;14.93;;;1.23;;
43678;SDS011;29279;50.858;4.392;2022-12-26T11:46:15;12.90;;;1.70;;
43678;SDS011;29279;50.858;4.392;2022-12-26T11:48:45;8.68;;;1.38;;
43678;SDS011;29279;50.858;4.392;2022-12-26T11:51:15;9.63;;;1.42;;
43678;SDS011;29279;50.858;4.392;2022-12-26T11:54:09;9.00;;;1.70;;
43678;SDS011;29279;50.858;4.392;2022-12-26T11:56:45;9.55;;;1.70;;
43678;SDS011;29279;50.858;4.392;2022-12-26T11:59:15;14.52;;;2.25;;
43678;SDS011;29279;50.858;4.392;2022-12-26T12:01:44;14.30;;;2.05;;
43678;SDS011;29279;50.858;4.392;2022-12-26T12:04:10;15.48;;;2.38;;
43678;SDS011;29279;50.858;4.392;2022-12-26T12:06:42;10.55;;;1.63;;
43678;SDS011;29279;50.858;4.392;2022-12-26T12:12:27;18.30;;;2.13;;
43678;SDS011;29279;50.858;4.392;2022-12-26T12:15:35;8.90;;;1.70;;
43678;SDS011;29279;50.858;4.392;2022-12-26T12:18:14;9.18;;;2.45;;
43678;SDS011;29279;50.858;4.392;2022-12-26T12:21:12;11.25;;;2.47;;
43678;SDS011;29279;50.858;4.392;2022-12-26T12:26:29;15.30;;;2.30;;
43678;SDS011;29279;50.858;4.392;2022-12-26T12:29:12;11.45;;;1.95;;
43678;SDS011;29279;50.858;4.392;2022-12-26T12:40:45;18.35;;;2.42;;
43678;SDS011;29279;50.858;4.392;2022-12-26T12:43:18;10.65;;;2.40;;
43678;SDS011;29279;50.858;4.392;2022-12-26T12:52:17;13.63;;;2.22;;
43678;SDS011;29279;50.858;4.392;2022-12-26T12:56:54;13.55;;;2.45;;
43678;SDS011;29279;50.858;4.392;2022-12-26T13:02:42;9.43;;;2.72;;
43678;SDS011;29279;50.858;4.392;2022-12-26T13:11:09;9.32;;;1.92;;
43678;SDS011;29279;50.858;4.392;2022-12-26T13:13:49;14.30;;;1.98;;
43678;SDS011;29279;50.858;4.392;2022-12-26T13:16:27;10.00;;;1.98;;
43678;SDS011;29279;50.858;4.392;2022-12-26T13:18:58;12.70;;;2.13;;
43678;SDS011;29279;50.858;4.392;2022-12-26T13:21:27;12.70;;;2.50;;
43678;SDS011;29279;50.858;4.392;2022-12-26T13:24:10;12.35;;;2.85;;
43678;SDS011;29279;50.858;4.392;2022-12-26T13:32:01;17.15;;;2.70;;
43678;SDS011;29279;50.858;4.392;2022-12-26T13:34:28;19.80;;;3.00;;
43678;SDS011;29279;50.858;4.392;2022-12-26T13:36:56;17.83;;;3.10;;
43678;SDS011;29279;50.858;4.392;2022-12-26T13:44:42;14.75;;;1.88;;
43678;SDS011;29279;50.858;4.392;2022-12-26T13:53:03;14.73;;;2.63;;
43678;SDS011;29279;50.858;4.392;2022-12-26T13:56:13;12.93;;;2.47;;
43678;SDS011;29279;50.858;4.392;2022-12-26T14:04:49;14.70;;;2.97;;
43678;SDS011;29279;50.858;4.392;2022-12-26T14:07:45;14.35;;;2.60;;
43678;SDS011;29279;50.858;4.392;2022-12-26T14:10:35;20.13;;;3.10;;
43678;SDS011;29279;50.858;4.392;2022-12-26T14:15:46;10.45;;;2.63;;
43678;SDS011;29279;50.858;4.392;2022-12-26T14:23:43;16.33;;;3.00;;
43678;SDS011;29279;50.858;4.392;2022-12-26T14:29:04;15.05;;;2.53;;
43678;SDS011;29279;50.858;4.392;2022-12-26T14:34:26;14.00;;;2.78;;
43678;SDS011;29279;50.858;4.392;2022-12-26T14:45:41;15.77;;;2.40;;
43678;SDS011;29279;50.858;4.392;2022-12-26T14:50:44;14.85;;;2.58;;
43678;SDS011;29279;50.858;4.392;2022-12-26T14:55:52;12.55;;;2.47;;
43678;SDS011;29279;50.858;4.392;2022-12-26T15:03:39;9.85;;;1.70;;
43678;SDS011;29279;50.858;4.392;2022-12-26T15:20:08;12.82;;;2.78;;
43678;SDS011;29279;50.858;4.392;2022-12-26T15:23:17;14.90;;;2.75;;
43678;SDS011;29279;50.858;4.392;2022-12-26T15:26:00;14.60;;;3.75;;
43678;SDS011;29279;50.858;4.392;2022-12-26T15:40:10;15.65;;;2.50;;
43678;SDS011;29279;50.858;4.392;2022-12-26T15:45:48;10.60;;;2.17;;
43678;SDS011;29279;50.858;4.392;2022-12-26T15:51:15;9.43;;;2.55;;
43678;SDS011;29279;50.858;4.392;2022-12-26T15:59:59;15.30;;;2.65;;
43678;SDS011;29279;50.858;4.392;2022-12-26T16:03:05;22.75;;;4.05;;
43678;SDS011;29279;50.858;4.392;2022-12-26T16:15:55;9.23;;;2.42;;
43678;SDS011;29279;50.858;4.392;2022-12-26T16:18:25;17.23;;;2.83;;
43678;SDS011;29279;50.858;4.392;2022-12-26T16:20:56;13.80;;;3.25;;
43678;SDS011;29279;50.858;4.392;2022-12-26T16:23:47;16.42;;;3.55;;
43678;SDS011;29279;50.858;4.392;2022-12-26T16:26:16;20.45;;;3.80;;
43678;SDS011;29279;50.858;4.392;2022-12-26T16:28:46;17.27;;;3.42;;
43678;SDS011;29279;50.858;4.392;2022-12-26T16:31:17;12.32;;;3.42;;
43678;SDS011;29279;50.858;4.392;2022-12-26T16:36:21;17.80;;;3.85;;
43678;SDS011;29279;50.858;4.392;2022-12-26T16:38:49;17.27;;;2.78;;
43678;SDS011;29279;50.858;4.392;2022-12-26T16:41:26;13.95;;;2.83;;
43678;SDS011;29279;50.858;4.392;2022-12-26T16:43:56;14.00;;;2.67;;
43678;SDS011;29279;50.858;4.392;2022-12-26T16:46:42;19.75;;;3.17;;
43678;SDS011;29279;50.858;4.392;2022-12-26T16:49:08;17.50;;;3.15;;
43678;SDS011;29279;50.858;4.392;2022-12-26T16:59:53;15.68;;;3.10;;
43678;SDS011;29279;50.858;4.392;2022-12-26T17:02:24;13.35;;;3.35;;
43678;SDS011;29279;50.858;4.392;2022-12-26T17:04:51;16.70;;;3.65;;
43678;SDS011;29279;50.858;4.392;2022-12-26T17:07:31;17.55;;;4.00;;
43678;SDS011;29279;50.858;4.392;2022-12-26T17:10:01;21.50;;;3.80;;
43678;SDS011;29279;50.858;4.392;2022-12-26T17:12:31;16.80;;;3.03;;
43678;SDS011;29279;50.858;4.392;2022-12-26T17:17:32;14.02;;;2.75;;
43678;SDS011;29279;50.858;4.392;2022-12-26T17:27:44;14.65;;;3.55;;
43678;SDS011;29279;50.858;4.392;2022-12-26T17:33:03;17.23;;;3.17;;
43678;SDS011;29279;50.858;4.392;2022-12-26T17:35:41;9.75;;;2.85;;
43678;SDS011;29279;50.858;4.392;2022-12-26T17:38:20;18.77;;;3.13;;
43678;SDS011;29279;50.858;4.392;2022-12-26T17:40:51;14.00;;;3.25;;
43678;SDS011;29279;50.858;4.392;2022-12-26T17:43:21;15.05;;;2.85;;
43678;SDS011;29279;50.858;4.392;2022-12-26T17:45:49;12.60;;;3.25;;
43678;SDS011;29279;50.858;4.392;2022-12-26T17:48:15;13.73;;;2.58;;
43678;SDS011;29279;50.858;4.392;2022-12-26T17:50:41;9.90;;;2.45;;
43678;SDS011;29279;50.858;4.392;2022-12-26T17:55:46;17.13;;;3.38;;
43678;SDS011;29279;50.858;4.392;2022-12-26T17:58:13;15.70;;;2.97;;
43678;SDS011;29279;50.858;4.392;2022-12-26T18:00:39;14.20;;;3.90;;
43678;SDS011;29279;50.858;4.392;2022-12-26T18:03:06;17.33;;;4.07;;
43678;SDS011;29279;50.858;4.392;2022-12-26T18:05:32;22.60;;;3.85;;
43678;SDS011;29279;50.858;4.392;2022-12-26T18:07:59;26.48;;;3.85;;
43678;SDS011;29279;50.858;4.392;2022-12-26T18:10:26;17.40;;;3.83;;
43678;SDS011;29279;50.858;4.392;2022-12-26T18:12:54;16.30;;;4.13;;
43678;SDS011;29279;50.858;4.392;2022-12-26T18:15:21;19.25;;;3.70;;
43678;SDS011;29279;50.858;4.392;2022-12-26T18:17:48;15.75;;;3.47;;
43678;SDS011;29279;50.858;4.392;2022-12-26T18:20:22;13.32;;;3.90;;
43678;SDS011;29279;50.858;4.392;2022-12-26T18:22:50;17.10;;;3.47;;
43678;SDS011;29279;50.858;4.392;2022-12-26T18:25:18;16.75;;;3.95;;
43678;SDS011;29279;50.858;4.392;2022-12-26T18:27:45;13.77;;;3.45;;
43678;SDS011;29279;50.858;4.392;2022-12-26T18:30:15;14.82;;;3.92;;
43678;SDS011;29279;50.858;4.392;2022-12-26T18:32:43;16.55;;;3.70;;
43678;SDS011;29279;50.858;4.392;2022-12-26T18:35:11;17.90;;;4.50;;
43678;SDS011;29279;50.858;4.392;2022-12-26T18:37:37;30.85;;;4.43;;
43678;SDS011;29279;50.858;4.392;2022-12-26T18:40:04;13.75;;;3.38;;
43678;SDS011;29279;50.858;4.392;2022-12-26T18:42:30;15.40;;;3.35;;
43678;SDS011;29279;50.858;4.392;2022-12-26T18:44:56;19.02;;;4.53;;
43678;SDS011;29279;50.858;4.392;2022-12-26T18:47:22;20.60;;;3.30;;
43678;SDS011;29279;50.858;4.392;2022-12-26T18:49:48;21.02;;;3.78;;
43678;SDS011;29279;50.858;4.392;2022-12-26T18:52:14;20.48;;;3.38;;
43678;SDS011;29279;50.858;4.392;2022-12-26T18:54:40;13.48;;;3.25;;
43678;SDS011;29279;50.858;4.392;2022-12-26T18:57:06;25.20;;;4.10;;
43678;SDS011;29279;50.858;4.392;2022-12-26T18:59:33;19.38;;;5.70;;
43678;SDS011;29279;50.858;4.392;2022-12-26T19:01:59;15.10;;;4.10;;
43678;SDS011;29279;50.858;4.392;2022-12-26T19:04:25;13.75;;;4.68;;